sensor_id;sensor_type;location;lat;lon;timestamp;P1;durP1;ratioP1;P2;durP2;ratioP2
65641;SDS011;52340;-6.720;108.544;2024-03-02T00:00:16;37.00;;;25.83;;
65641;SDS011;52340;-6.720;108.544;2024-03-02T00:01:17;37.08;;;24.77;;
65641;SDS011;52340;-6.720;108.544;2024-03-02T00:02:19;38.47;;;25.33;;
65641;SDS011;52340;-6.720;108.544;2024-03-02T00:03:21;34.88;;;23.55;;
65641;SDS011;52340;-6.720;108.544;2024-03-02T00:04:22;39.25;;;23.40;;
65641;SDS011;52340;-6.720;108.544;2024-03-02T00:05:24;46.58;;;23.02;;
65641;SDS011;52340;-6.720;108.544;2024-03-02T00:06:26;35.90;;;22.63;;
65641;SDS011;52340;-6.720;108.544;2024-03-02T00:07:30;42.63;;;21.05;;
65641;SDS011;52340;-6.720;108.544;2024-03-02T00:08:32;33.33;;;21.25;;
65641;SDS011;52340;-6.720;108.544;2024-03-02T00:09:34;28.48;;;20.85;;
65641;SDS011;52340;-6.720;108.544;2024-03-02T00:10:36;30.52;;;20.92;;
65641;SDS011;52340;-6.720;108.544;2024-03-02T00:11:38;34.30;;;20.85;;
65641;SDS011;52340;-6.720;108.544;2024-03-02T00:12:40;32.03;;;20.83;;
65641;SDS011;52340;-6.720;108.544;2024-03-02T00:13:42;32.65;;;20.77;;
65641;SDS011;52340;-6.720;108.544;2024-03-02T00:14:48;31.30;;;19.92;;
65641;SDS011;52340;-6.720;108.544;2024-03-02T00:15:51;27.92;;;20.50;;
65641;SDS011;52340;-6.720;108.544;2024-03-02T00:16:54;29.95;;;20.10;;
65641;SDS011;52340;-6.720;108.544;2024-03-02T00:17:57;29.27;;;20.67;;
65641;SDS011;52340;-6.720;108.544;2024-03-02T00:19:01;27.35;;;19.98;;
65641;SDS011;52340;-6.720;108.544;2024-03-02T00:20:03;28.50;;;20.20;;
65641;SDS011;52340;-6.720;108.544;2024-03-02T00:21:08;29.58;;;20.50;;
65641;SDS011;52340;-6.720;108.544;2024-03-02T00:22:10;29.83;;;20.00;;
65641;SDS011;52340;-6.720;108.544;2024-03-02T00:23:13;26.58;;;19.02;;
65641;SDS011;52340;-6.720;108.544;2024-03-02T00:24:18;27.67;;;19.35;;
65641;SDS011;52340;-6.720;108.544;2024-03-02T00:25:21;25.40;;;19.23;;
65641;SDS011;52340;-6.720;108.544;2024-03-02T00:26:23;30.83;;;19.73;;
65641;SDS011;52340;-6.720;108.544;2024-03-02T00:27:25;27.90;;;19.10;;
65641;SDS011;52340;-6.720;108.544;2024-03-02T00:28:27;24.77;;;17.88;;
65641;SDS011;52340;-6.720;108.544;2024-03-02T00:29:30;28.05;;;19.55;;
65641;SDS011;52340;-6.720;108.544;2024-03-02T00:30:42;25.40;;;18.52;;
65641;SDS011;52340;-6.720;108.544;2024-03-02T00:31:52;28.38;;;18.70;;
65641;SDS011;52340;-6.720;108.544;2024-03-02T00:32:53;29.77;;;19.85;;
65641;SDS011;52340;-6.720;108.544;2024-03-02T00:33:55;26.80;;;19.48;;
65641;SDS011;52340;-6.720;108.544;2024-03-02T00:35:05;27.52;;;19.77;;
65641;SDS011;52340;-6.720;108.544;2024-03-02T00:36:07;25.95;;;18.83;;
65641;SDS011;52340;-6.720;108.544;2024-03-02T00:37:09;28.27;;;19.88;;
65641;SDS011;52340;-6.720;108.544;2024-03-02T00:38:11;24.75;;;18.60;;
65641;SDS011;52340;-6.720;108.544;2024-03-02T00:39:15;27.23;;;18.25;;
65641;SDS011;52340;-6.720;108.544;2024-03-02T00:40:16;27.95;;;19.35;;
65641;SDS011;52340;-6.720;108.544;2024-03-02T00:41:20;25.60;;;18.65;;
65641;SDS011;52340;-6.720;108.544;2024-03-02T00:42:23;23.65;;;17.92;;
65641;SDS011;52340;-6.720;108.544;2024-03-02T00:44:59;25.00;;;18.88;;
65641;SDS011;52340;-6.720;108.544;2024-03-02T00:46:02;25.38;;;18.15;;
65641;SDS011;52340;-6.720;108.544;2024-03-02T00:47:04;24.08;;;18.55;;
65641;SDS011;52340;-6.720;108.544;2024-03-02T00:48:06;25.08;;;17.45;;
65641;SDS011;52340;-6.720;108.544;2024-03-02T00:49:11;23.70;;;18.13;;
65641;SDS011;52340;-6.720;108.544;2024-03-02T00:50:18;27.05;;;18.45;;
65641;SDS011;52340;-6.720;108.544;2024-03-02T00:51:20;26.45;;;18.25;;
65641;SDS011;52340;-6.720;108.544;2024-03-02T00:52:22;26.55;;;19.98;;
65641;SDS011;52340;-6.720;108.544;2024-03-02T00:53:25;27.73;;;19.05;;
65641;SDS011;52340;-6.720;108.544;2024-03-02T00:54:27;26.88;;;19.10;;
65641;SDS011;52340;-6.720;108.544;2024-03-02T00:55:31;26.65;;;19.08;;
65641;SDS011;52340;-6.720;108.544;2024-03-02T00:56:37;26.00;;;18.83;;
65641;SDS011;52340;-6.720;108.544;2024-03-02T00:57:38;25.75;;;18.95;;
65641;SDS011;52340;-6.720;108.544;2024-03-02T00:58:40;29.65;;;19.50;;
65641;SDS011;52340;-6.720;108.544;2024-03-02T00:59:42;25.40;;;19.73;;
65641;SDS011;52340;-6.720;108.544;2024-03-02T01:00:43;26.25;;;19.73;;
65641;SDS011;52340;-6.720;108.544;2024-03-02T01:01:47;25.40;;;18.33;;
65641;SDS011;52340;-6.720;108.544;2024-03-02T01:02:49;26.90;;;19.27;;
65641;SDS011;52340;-6.720;108.544;2024-03-02T01:03:50;22.35;;;17.88;;
65641;SDS011;52340;-6.720;108.544;2024-03-02T01:04:52;28.77;;;18.40;;
65641;SDS011;52340;-6.720;108.544;2024-03-02T01:05:54;24.70;;;18.33;;
65641;SDS011;52340;-6.720;108.544;2024-03-02T01:06:55;24.90;;;18.67;;
65641;SDS011;52340;-6.720;108.544;2024-03-02T01:07:57;25.65;;;18.55;;
65641;SDS011;52340;-6.720;108.544;2024-03-02T01:08:59;23.35;;;17.55;;
65641;SDS011;52340;-6.720;108.544;2024-03-02T01:10:01;25.60;;;17.55;;
65641;SDS011;52340;-6.720;108.544;2024-03-02T01:11:03;24.45;;;17.33;;
65641;SDS011;52340;-6.720;108.544;2024-03-02T01:12:05;24.90;;;16.33;;
65641;SDS011;52340;-6.720;108.544;2024-03-02T01:13:07;25.08;;;17.33;;
65641;SDS011;52340;-6.720;108.544;2024-03-02T01:14:09;24.35;;;18.23;;
65641;SDS011;52340;-6.720;108.544;2024-03-02T01:15:13;24.35;;;16.90;;
65641;SDS011;52340;-6.720;108.544;2024-03-02T01:16:15;22.13;;;16.17;;
65641;SDS011;52340;-6.720;108.544;2024-03-02T01:17:18;24.77;;;17.45;;
65641;SDS011;52340;-6.720;108.544;2024-03-02T01:18:20;24.23;;;17.23;;
65641;SDS011;52340;-6.720;108.544;2024-03-02T01:19:22;24.50;;;17.48;;
65641;SDS011;52340;-6.720;108.544;2024-03-02T01:20:24;24.33;;;18.50;;
65641;SDS011;52340;-6.720;108.544;2024-03-02T01:21:25;23.40;;;17.58;;
65641;SDS011;52340;-6.720;108.544;2024-03-02T01:22:27;24.00;;;18.17;;
65641;SDS011;52340;-6.720;108.544;2024-03-02T01:23:29;27.60;;;18.38;;
65641;SDS011;52340;-6.720;108.544;2024-03-02T01:24:30;21.00;;;17.08;;
65641;SDS011;52340;-6.720;108.544;2024-03-02T01:25:32;25.23;;;17.90;;
65641;SDS011;52340;-6.720;108.544;2024-03-02T01:26:34;22.17;;;16.95;;
65641;SDS011;52340;-6.720;108.544;2024-03-02T01:27:35;24.27;;;17.42;;
65641;SDS011;52340;-6.720;108.544;2024-03-02T01:28:37;26.80;;;18.85;;
65641;SDS011;52340;-6.720;108.544;2024-03-02T01:29:39;23.15;;;17.88;;
65641;SDS011;52340;-6.720;108.544;2024-03-02T01:30:40;25.60;;;17.95;;
65641;SDS011;52340;-6.720;108.544;2024-03-02T01:31:42;26.17;;;17.88;;
65641;SDS011;52340;-6.720;108.544;2024-03-02T01:32:46;24.95;;;18.98;;
65641;SDS011;52340;-6.720;108.544;2024-03-02T01:33:48;27.70;;;18.70;;
65641;SDS011;52340;-6.720;108.544;2024-03-02T01:34:50;33.50;;;20.00;;
65641;SDS011;52340;-6.720;108.544;2024-03-02T01:35:59;29.70;;;19.92;;
65641;SDS011;52340;-6.720;108.544;2024-03-02T01:37:01;31.50;;;20.70;;
65641;SDS011;52340;-6.720;108.544;2024-03-02T01:38:02;27.45;;;19.65;;
65641;SDS011;52340;-6.720;108.544;2024-03-02T01:39:04;30.55;;;20.38;;
65641;SDS011;52340;-6.720;108.544;2024-03-02T01:40:06;28.60;;;20.70;;
65641;SDS011;52340;-6.720;108.544;2024-03-02T01:41:09;30.02;;;20.88;;
65641;SDS011;52340;-6.720;108.544;2024-03-02T01:42:13;31.33;;;21.77;;
65641;SDS011;52340;-6.720;108.544;2024-03-02T01:43:15;30.15;;;22.13;;
65641;SDS011;52340;-6.720;108.544;2024-03-02T01:44:16;32.92;;;22.23;;
65641;SDS011;52340;-6.720;108.544;2024-03-02T01:45:18;30.50;;;21.83;;
65641;SDS011;52340;-6.720;108.544;2024-03-02T01:46:20;29.42;;;21.92;;
65641;SDS011;52340;-6.720;108.544;2024-03-02T01:47:24;26.52;;;20.20;;
65641;SDS011;52340;-6.720;108.544;2024-03-02T01:48:28;33.20;;;21.38;;
65641;SDS011;52340;-6.720;108.544;2024-03-02T01:49:29;29.00;;;21.55;;
65641;SDS011;52340;-6.720;108.544;2024-03-02T01:50:31;31.67;;;21.73;;
65641;SDS011;52340;-6.720;108.544;2024-03-02T01:51:33;31.35;;;21.88;;
65641;SDS011;52340;-6.720;108.544;2024-03-02T01:52:35;33.33;;;22.88;;
65641;SDS011;52340;-6.720;108.544;2024-03-02T01:53:37;30.13;;;22.05;;
65641;SDS011;52340;-6.720;108.544;2024-03-02T01:54:39;28.85;;;22.10;;
65641;SDS011;52340;-6.720;108.544;2024-03-02T01:55:40;29.33;;;20.63;;
65641;SDS011;52340;-6.720;108.544;2024-03-02T01:56:42;26.40;;;19.77;;
65641;SDS011;52340;-6.720;108.544;2024-03-02T01:57:44;30.13;;;20.05;;
65641;SDS011;52340;-6.720;108.544;2024-03-02T01:58:45;25.38;;;19.58;;
65641;SDS011;52340;-6.720;108.544;2024-03-02T01:59:47;26.33;;;19.60;;
65641;SDS011;52340;-6.720;108.544;2024-03-02T02:00:49;23.98;;;18.17;;
65641;SDS011;52340;-6.720;108.544;2024-03-02T02:01:50;24.25;;;17.27;;
65641;SDS011;52340;-6.720;108.544;2024-03-02T02:02:54;25.42;;;17.75;;
65641;SDS011;52340;-6.720;108.544;2024-03-02T02:03:58;24.67;;;18.02;;
65641;SDS011;52340;-6.720;108.544;2024-03-02T02:05:00;22.38;;;17.00;;
65641;SDS011;52340;-6.720;108.544;2024-03-02T02:06:01;23.95;;;17.42;;
65641;SDS011;52340;-6.720;108.544;2024-03-02T02:07:03;24.73;;;16.77;;
65641;SDS011;52340;-6.720;108.544;2024-03-02T02:08:08;19.00;;;15.27;;
65641;SDS011;52340;-6.720;108.544;2024-03-02T02:09:10;22.88;;;15.82;;
65641;SDS011;52340;-6.720;108.544;2024-03-02T02:10:12;21.35;;;15.70;;
65641;SDS011;52340;-6.720;108.544;2024-03-02T02:11:14;22.40;;;15.15;;
65641;SDS011;52340;-6.720;108.544;2024-03-02T02:12:16;20.50;;;15.23;;
65641;SDS011;52340;-6.720;108.544;2024-03-02T02:13:18;21.13;;;15.50;;
65641;SDS011;52340;-6.720;108.544;2024-03-02T02:14:20;21.85;;;15.32;;
65641;SDS011;52340;-6.720;108.544;2024-03-02T02:15:23;23.83;;;15.98;;
65641;SDS011;52340;-6.720;108.544;2024-03-02T02:16:27;20.35;;;15.32;;
65641;SDS011;52340;-6.720;108.544;2024-03-02T02:17:29;20.95;;;15.38;;
65641;SDS011;52340;-6.720;108.544;2024-03-02T02:18:31;23.85;;;16.10;;
65641;SDS011;52340;-6.720;108.544;2024-03-02T02:19:34;22.35;;;16.00;;
65641;SDS011;52340;-6.720;108.544;2024-03-02T02:20:36;19.00;;;15.60;;
65641;SDS011;52340;-6.720;108.544;2024-03-02T02:21:39;21.98;;;15.90;;
65641;SDS011;52340;-6.720;108.544;2024-03-02T02:22:52;23.15;;;16.70;;
65641;SDS011;52340;-6.720;108.544;2024-03-02T02:23:57;22.50;;;15.85;;
65641;SDS011;52340;-6.720;108.544;2024-03-02T02:24:59;24.10;;;16.27;;
65641;SDS011;52340;-6.720;108.544;2024-03-02T02:26:01;21.00;;;16.48;;
65641;SDS011;52340;-6.720;108.544;2024-03-02T02:27:03;23.42;;;17.17;;
65641;SDS011;52340;-6.720;108.544;2024-03-02T02:28:05;22.15;;;17.55;;
65641;SDS011;52340;-6.720;108.544;2024-03-02T02:29:07;24.45;;;17.40;;
65641;SDS011;52340;-6.720;108.544;2024-03-02T02:30:11;24.48;;;17.52;;
65641;SDS011;52340;-6.720;108.544;2024-03-02T02:31:14;23.15;;;17.50;;
65641;SDS011;52340;-6.720;108.544;2024-03-02T02:32:16;23.23;;;17.35;;
65641;SDS011;52340;-6.720;108.544;2024-03-02T02:33:17;22.70;;;18.02;;
65641;SDS011;52340;-6.720;108.544;2024-03-02T02:34:19;25.88;;;17.60;;
65641;SDS011;52340;-6.720;108.544;2024-03-02T02:35:21;22.65;;;17.48;;
65641;SDS011;52340;-6.720;108.544;2024-03-02T02:36:22;22.77;;;17.77;;
65641;SDS011;52340;-6.720;108.544;2024-03-02T02:37:26;22.30;;;17.90;;
65641;SDS011;52340;-6.720;108.544;2024-03-02T02:38:28;24.48;;;19.17;;
65641;SDS011;52340;-6.720;108.544;2024-03-02T02:39:29;27.33;;;19.95;;
65641;SDS011;52340;-6.720;108.544;2024-03-02T02:40:31;27.92;;;19.88;;
65641;SDS011;52340;-6.720;108.544;2024-03-02T02:41:33;25.58;;;19.25;;
65641;SDS011;52340;-6.720;108.544;2024-03-02T02:42:35;25.10;;;19.70;;
65641;SDS011;52340;-6.720;108.544;2024-03-02T02:43:39;28.13;;;20.88;;
65641;SDS011;52340;-6.720;108.544;2024-03-02T02:44:40;27.48;;;20.88;;
65641;SDS011;52340;-6.720;108.544;2024-03-02T02:45:44;26.60;;;20.65;;
65641;SDS011;52340;-6.720;108.544;2024-03-02T02:46:46;25.00;;;19.15;;
65641;SDS011;52340;-6.720;108.544;2024-03-02T02:47:50;24.75;;;20.00;;
65641;SDS011;52340;-6.720;108.544;2024-03-02T02:48:52;27.95;;;20.10;;
65641;SDS011;52340;-6.720;108.544;2024-03-02T02:49:54;26.35;;;20.75;;
65641;SDS011;52340;-6.720;108.544;2024-03-02T02:50:55;25.77;;;19.67;;
65641;SDS011;52340;-6.720;108.544;2024-03-02T02:51:57;27.85;;;20.23;;
65641;SDS011;52340;-6.720;108.544;2024-03-02T02:53:00;27.25;;;20.60;;
65641;SDS011;52340;-6.720;108.544;2024-03-02T02:54:02;27.58;;;20.00;;
65641;SDS011;52340;-6.720;108.544;2024-03-02T02:55:04;31.85;;;20.45;;
65641;SDS011;52340;-6.720;108.544;2024-03-02T02:56:07;37.85;;;21.80;;
65641;SDS011;52340;-6.720;108.544;2024-03-02T02:57:09;35.15;;;21.75;;
65641;SDS011;52340;-6.720;108.544;2024-03-02T02:58:13;32.70;;;21.60;;
65641;SDS011;52340;-6.720;108.544;2024-03-02T02:59:15;33.05;;;21.20;;
65641;SDS011;52340;-6.720;108.544;2024-03-02T03:00:17;37.72;;;21.83;;
65641;SDS011;52340;-6.720;108.544;2024-03-02T03:01:20;30.83;;;21.60;;
65641;SDS011;52340;-6.720;108.544;2024-03-02T03:02:21;28.55;;;21.70;;
65641;SDS011;52340;-6.720;108.544;2024-03-02T03:03:23;34.60;;;23.23;;
65641;SDS011;52340;-6.720;108.544;2024-03-02T03:04:25;32.58;;;23.35;;
65641;SDS011;52340;-6.720;108.544;2024-03-02T03:05:26;26.90;;;21.63;;
65641;SDS011;52340;-6.720;108.544;2024-03-02T03:06:28;24.80;;;20.33;;
65641;SDS011;52340;-6.720;108.544;2024-03-02T03:07:30;27.45;;;19.40;;
65641;SDS011;52340;-6.720;108.544;2024-03-02T03:08:33;27.45;;;19.75;;
65641;SDS011;52340;-6.720;108.544;2024-03-02T03:09:37;30.90;;;20.73;;
65641;SDS011;52340;-6.720;108.544;2024-03-02T03:10:39;27.35;;;21.40;;
65641;SDS011;52340;-6.720;108.544;2024-03-02T03:11:41;30.23;;;20.83;;
65641;SDS011;52340;-6.720;108.544;2024-03-02T03:12:42;28.90;;;19.92;;
65641;SDS011;52340;-6.720;108.544;2024-03-02T03:13:45;26.80;;;20.08;;
65641;SDS011;52340;-6.720;108.544;2024-03-02T03:14:46;25.42;;;20.45;;
65641;SDS011;52340;-6.720;108.544;2024-03-02T03:15:48;27.23;;;21.20;;
65641;SDS011;52340;-6.720;108.544;2024-03-02T03:16:50;27.38;;;20.88;;
65641;SDS011;52340;-6.720;108.544;2024-03-02T03:17:52;29.30;;;21.45;;
65641;SDS011;52340;-6.720;108.544;2024-03-02T03:18:53;30.88;;;23.23;;
65641;SDS011;52340;-6.720;108.544;2024-03-02T03:19:55;29.73;;;21.50;;
65641;SDS011;52340;-6.720;108.544;2024-03-02T03:20:57;29.05;;;21.95;;
65641;SDS011;52340;-6.720;108.544;2024-03-02T03:21:59;28.00;;;21.13;;
65641;SDS011;52340;-6.720;108.544;2024-03-02T03:23:01;25.98;;;20.88;;
65641;SDS011;52340;-6.720;108.544;2024-03-02T03:24:08;29.85;;;22.25;;
65641;SDS011;52340;-6.720;108.544;2024-03-02T03:25:09;29.23;;;22.42;;
65641;SDS011;52340;-6.720;108.544;2024-03-02T03:26:12;32.10;;;21.33;;
65641;SDS011;52340;-6.720;108.544;2024-03-02T03:27:14;28.38;;;21.35;;
65641;SDS011;52340;-6.720;108.544;2024-03-02T03:28:16;30.45;;;21.40;;
65641;SDS011;52340;-6.720;108.544;2024-03-02T03:29:18;26.38;;;20.92;;
65641;SDS011;52340;-6.720;108.544;2024-03-02T03:30:38;26.42;;;21.08;;
65641;SDS011;52340;-6.720;108.544;2024-03-02T03:32:58;28.75;;;21.45;;
65641;SDS011;52340;-6.720;108.544;2024-03-02T03:34:00;29.55;;;21.00;;
65641;SDS011;52340;-6.720;108.544;2024-03-02T03:35:02;30.95;;;22.65;;
65641;SDS011;52340;-6.720;108.544;2024-03-02T03:36:04;31.45;;;23.10;;
65641;SDS011;52340;-6.720;108.544;2024-03-02T03:37:06;30.33;;;22.88;;
65641;SDS011;52340;-6.720;108.544;2024-03-02T03:38:08;29.98;;;22.48;;
65641;SDS011;52340;-6.720;108.544;2024-03-02T03:39:12;30.00;;;23.05;;
65641;SDS011;52340;-6.720;108.544;2024-03-02T03:40:17;30.15;;;22.23;;
65641;SDS011;52340;-6.720;108.544;2024-03-02T03:41:18;32.60;;;22.33;;
65641;SDS011;52340;-6.720;108.544;2024-03-02T03:42:20;33.63;;;24.10;;
65641;SDS011;52340;-6.720;108.544;2024-03-02T03:43:22;31.98;;;23.70;;
65641;SDS011;52340;-6.720;108.544;2024-03-02T03:44:24;28.88;;;22.45;;
65641;SDS011;52340;-6.720;108.544;2024-03-02T03:45:26;33.53;;;24.05;;
65641;SDS011;52340;-6.720;108.544;2024-03-02T03:46:28;31.80;;;23.08;;
65641;SDS011;52340;-6.720;108.544;2024-03-02T03:47:29;31.75;;;23.77;;
65641;SDS011;52340;-6.720;108.544;2024-03-02T03:48:32;32.15;;;23.52;;
65641;SDS011;52340;-6.720;108.544;2024-03-02T03:49:34;31.77;;;24.73;;
65641;SDS011;52340;-6.720;108.544;2024-03-02T03:50:36;32.00;;;24.83;;
65641;SDS011;52340;-6.720;108.544;2024-03-02T03:51:38;31.92;;;24.90;;
65641;SDS011;52340;-6.720;108.544;2024-03-02T03:52:39;32.47;;;24.98;;
65641;SDS011;52340;-6.720;108.544;2024-03-02T03:53:41;32.80;;;24.92;;
65641;SDS011;52340;-6.720;108.544;2024-03-02T03:54:45;32.60;;;24.58;;
65641;SDS011;52340;-6.720;108.544;2024-03-02T03:55:46;35.42;;;24.38;;
65641;SDS011;52340;-6.720;108.544;2024-03-02T03:56:48;30.40;;;23.88;;
65641;SDS011;52340;-6.720;108.544;2024-03-02T03:57:50;32.00;;;24.52;;
65641;SDS011;52340;-6.720;108.544;2024-03-02T03:58:52;33.00;;;25.50;;
65641;SDS011;52340;-6.720;108.544;2024-03-02T03:59:53;32.60;;;23.77;;
65641;SDS011;52340;-6.720;108.544;2024-03-02T04:00:55;32.90;;;25.00;;
65641;SDS011;52340;-6.720;108.544;2024-03-02T04:02:00;41.88;;;26.02;;
65641;SDS011;52340;-6.720;108.544;2024-03-02T04:03:01;39.67;;;26.50;;
65641;SDS011;52340;-6.720;108.544;2024-03-02T04:04:04;36.47;;;26.60;;
65641;SDS011;52340;-6.720;108.544;2024-03-02T04:05:06;36.53;;;26.65;;
65641;SDS011;52340;-6.720;108.544;2024-03-02T04:06:08;36.03;;;27.00;;
65641;SDS011;52340;-6.720;108.544;2024-03-02T04:07:10;36.30;;;26.08;;
65641;SDS011;52340;-6.720;108.544;2024-03-02T04:08:12;35.03;;;26.15;;
65641;SDS011;52340;-6.720;108.544;2024-03-02T04:09:14;35.13;;;26.50;;
65641;SDS011;52340;-6.720;108.544;2024-03-02T04:10:17;34.05;;;25.73;;
65641;SDS011;52340;-6.720;108.544;2024-03-02T04:11:19;33.75;;;24.73;;
65641;SDS011;52340;-6.720;108.544;2024-03-02T04:12:21;32.75;;;24.02;;
65641;SDS011;52340;-6.720;108.544;2024-03-02T04:13:23;34.30;;;24.65;;
65641;SDS011;52340;-6.720;108.544;2024-03-02T04:14:25;32.90;;;25.38;;
65641;SDS011;52340;-6.720;108.544;2024-03-02T04:15:32;34.13;;;27.25;;
65641;SDS011;52340;-6.720;108.544;2024-03-02T04:16:34;37.28;;;27.10;;
65641;SDS011;52340;-6.720;108.544;2024-03-02T04:17:37;32.60;;;25.23;;
65641;SDS011;52340;-6.720;108.544;2024-03-02T04:18:39;34.63;;;25.55;;
65641;SDS011;52340;-6.720;108.544;2024-03-02T04:19:41;33.80;;;25.55;;
65641;SDS011;52340;-6.720;108.544;2024-03-02T04:20:43;33.25;;;24.23;;
65641;SDS011;52340;-6.720;108.544;2024-03-02T04:21:45;37.90;;;27.55;;
65641;SDS011;52340;-6.720;108.544;2024-03-02T04:22:46;34.55;;;26.70;;
65641;SDS011;52340;-6.720;108.544;2024-03-02T04:23:48;38.38;;;29.58;;
65641;SDS011;52340;-6.720;108.544;2024-03-02T04:24:50;39.15;;;30.42;;
65641;SDS011;52340;-6.720;108.544;2024-03-02T04:25:54;40.10;;;29.50;;
65641;SDS011;52340;-6.720;108.544;2024-03-02T04:26:55;40.72;;;29.40;;
65641;SDS011;52340;-6.720;108.544;2024-03-02T04:27:57;39.85;;;29.92;;
65641;SDS011;52340;-6.720;108.544;2024-03-02T04:29:02;41.00;;;30.38;;
65641;SDS011;52340;-6.720;108.544;2024-03-02T04:30:04;38.83;;;29.33;;
65641;SDS011;52340;-6.720;108.544;2024-03-02T04:31:07;39.15;;;29.10;;
65641;SDS011;52340;-6.720;108.544;2024-03-02T04:32:08;37.90;;;29.15;;
65641;SDS011;52340;-6.720;108.544;2024-03-02T04:33:10;41.72;;;29.17;;
65641;SDS011;52340;-6.720;108.544;2024-03-02T04:34:12;41.10;;;29.25;;
65641;SDS011;52340;-6.720;108.544;2024-03-02T04:35:14;39.25;;;29.38;;
65641;SDS011;52340;-6.720;108.544;2024-03-02T04:36:16;40.47;;;30.05;;
65641;SDS011;52340;-6.720;108.544;2024-03-02T04:37:17;38.25;;;28.45;;
65641;SDS011;52340;-6.720;108.544;2024-03-02T04:38:19;37.70;;;29.35;;
65641;SDS011;52340;-6.720;108.544;2024-03-02T04:39:21;39.38;;;30.08;;
65641;SDS011;52340;-6.720;108.544;2024-03-02T04:40:23;37.72;;;28.90;;
65641;SDS011;52340;-6.720;108.544;2024-03-02T04:41:26;35.55;;;27.08;;
65641;SDS011;52340;-6.720;108.544;2024-03-02T04:42:28;39.00;;;29.33;;
65641;SDS011;52340;-6.720;108.544;2024-03-02T04:43:30;39.85;;;29.48;;
65641;SDS011;52340;-6.720;108.544;2024-03-02T04:44:32;39.85;;;30.23;;
65641;SDS011;52340;-6.720;108.544;2024-03-02T04:45:34;43.65;;;32.22;;
65641;SDS011;52340;-6.720;108.544;2024-03-02T04:46:38;41.25;;;30.77;;
65641;SDS011;52340;-6.720;108.544;2024-03-02T04:47:39;45.83;;;31.55;;
65641;SDS011;52340;-6.720;108.544;2024-03-02T04:48:41;42.47;;;31.38;;
65641;SDS011;52340;-6.720;108.544;2024-03-02T04:49:43;38.40;;;31.73;;
65641;SDS011;52340;-6.720;108.544;2024-03-02T04:50:45;42.53;;;33.28;;
65641;SDS011;52340;-6.720;108.544;2024-03-02T04:51:47;45.00;;;32.33;;
65641;SDS011;52340;-6.720;108.544;2024-03-02T04:52:48;42.55;;;32.67;;
65641;SDS011;52340;-6.720;108.544;2024-03-02T04:53:50;44.65;;;34.08;;
65641;SDS011;52340;-6.720;108.544;2024-03-02T04:54:52;46.80;;;35.15;;
65641;SDS011;52340;-6.720;108.544;2024-03-02T04:55:54;49.90;;;36.97;;
65641;SDS011;52340;-6.720;108.544;2024-03-02T04:57:00;48.97;;;37.33;;
65641;SDS011;52340;-6.720;108.544;2024-03-02T04:58:02;50.28;;;38.08;;
65641;SDS011;52340;-6.720;108.544;2024-03-02T04:59:05;46.47;;;35.63;;
65641;SDS011;52340;-6.720;108.544;2024-03-02T05:00:07;53.33;;;37.30;;
65641;SDS011;52340;-6.720;108.544;2024-03-02T05:01:10;47.63;;;37.72;;
65641;SDS011;52340;-6.720;108.544;2024-03-02T05:02:12;44.70;;;34.92;;
65641;SDS011;52340;-6.720;108.544;2024-03-02T05:03:13;46.13;;;35.30;;
65641;SDS011;52340;-6.720;108.544;2024-03-02T05:04:15;52.50;;;38.58;;
65641;SDS011;52340;-6.720;108.544;2024-03-02T05:05:17;50.42;;;37.28;;
65641;SDS011;52340;-6.720;108.544;2024-03-02T05:06:19;51.42;;;37.70;;
65641;SDS011;52340;-6.720;108.544;2024-03-02T05:07:21;50.03;;;37.42;;
65641;SDS011;52340;-6.720;108.544;2024-03-02T05:08:23;50.15;;;37.92;;
65641;SDS011;52340;-6.720;108.544;2024-03-02T05:09:24;50.20;;;38.00;;
65641;SDS011;52340;-6.720;108.544;2024-03-02T05:10:26;50.00;;;36.35;;
65641;SDS011;52340;-6.720;108.544;2024-03-02T05:11:28;49.42;;;37.33;;
65641;SDS011;52340;-6.720;108.544;2024-03-02T05:12:32;48.50;;;37.25;;
65641;SDS011;52340;-6.720;108.544;2024-03-02T05:13:34;51.88;;;38.28;;
65641;SDS011;52340;-6.720;108.544;2024-03-02T05:14:38;51.78;;;38.72;;
65641;SDS011;52340;-6.720;108.544;2024-03-02T05:15:40;49.90;;;38.15;;
65641;SDS011;52340;-6.720;108.544;2024-03-02T05:16:41;54.15;;;40.13;;
65641;SDS011;52340;-6.720;108.544;2024-03-02T05:17:43;54.35;;;39.85;;
65641;SDS011;52340;-6.720;108.544;2024-03-02T05:18:45;49.15;;;37.60;;
65641;SDS011;52340;-6.720;108.544;2024-03-02T05:19:47;50.90;;;39.70;;
65641;SDS011;52340;-6.720;108.544;2024-03-02T05:20:49;48.80;;;37.92;;
65641;SDS011;52340;-6.720;108.544;2024-03-02T05:21:51;51.80;;;39.55;;
65641;SDS011;52340;-6.720;108.544;2024-03-02T05:22:53;54.22;;;40.65;;
65641;SDS011;52340;-6.720;108.544;2024-03-02T05:23:55;49.63;;;36.78;;
65641;SDS011;52340;-6.720;108.544;2024-03-02T05:24:57;40.28;;;29.98;;
65641;SDS011;52340;-6.720;108.544;2024-03-02T05:25:59;33.30;;;25.45;;
65641;SDS011;52340;-6.720;108.544;2024-03-02T05:27:00;30.60;;;22.65;;
65641;SDS011;52340;-6.720;108.544;2024-03-02T05:28:05;31.05;;;23.15;;
65641;SDS011;52340;-6.720;108.544;2024-03-02T05:29:07;30.77;;;23.17;;
65641;SDS011;52340;-6.720;108.544;2024-03-02T05:30:09;39.28;;;30.65;;
65641;SDS011;52340;-6.720;108.544;2024-03-02T05:31:11;29.08;;;22.00;;
65641;SDS011;52340;-6.720;108.544;2024-03-02T05:32:17;29.60;;;20.45;;
65641;SDS011;52340;-6.720;108.544;2024-03-02T05:33:19;28.25;;;19.35;;
65641;SDS011;52340;-6.720;108.544;2024-03-02T05:34:21;29.88;;;20.80;;
65641;SDS011;52340;-6.720;108.544;2024-03-02T05:35:23;29.13;;;21.30;;
65641;SDS011;52340;-6.720;108.544;2024-03-02T05:36:25;32.40;;;23.75;;
65641;SDS011;52340;-6.720;108.544;2024-03-02T05:37:28;29.90;;;23.23;;
65641;SDS011;52340;-6.720;108.544;2024-03-02T05:38:30;29.48;;;21.15;;
65641;SDS011;52340;-6.720;108.544;2024-03-02T05:39:32;31.13;;;20.52;;
65641;SDS011;52340;-6.720;108.544;2024-03-02T05:40:34;29.95;;;21.65;;
65641;SDS011;52340;-6.720;108.544;2024-03-02T05:41:36;27.00;;;20.50;;
65641;SDS011;52340;-6.720;108.544;2024-03-02T05:42:38;27.60;;;21.45;;
65641;SDS011;52340;-6.720;108.544;2024-03-02T05:43:42;28.95;;;21.20;;
65641;SDS011;52340;-6.720;108.544;2024-03-02T05:44:44;27.85;;;19.40;;
65641;SDS011;52340;-6.720;108.544;2024-03-02T05:45:46;25.35;;;17.42;;
65641;SDS011;52340;-6.720;108.544;2024-03-02T05:46:51;23.92;;;17.92;;
65641;SDS011;52340;-6.720;108.544;2024-03-02T05:47:53;23.48;;;16.23;;
65641;SDS011;52340;-6.720;108.544;2024-03-02T05:48:58;22.30;;;16.25;;
65641;SDS011;52340;-6.720;108.544;2024-03-02T05:50:00;24.55;;;18.02;;
65641;SDS011;52340;-6.720;108.544;2024-03-02T05:51:02;26.05;;;16.02;;
65641;SDS011;52340;-6.720;108.544;2024-03-02T05:52:05;22.55;;;16.13;;
65641;SDS011;52340;-6.720;108.544;2024-03-02T05:53:07;23.65;;;17.10;;
65641;SDS011;52340;-6.720;108.544;2024-03-02T05:54:08;20.85;;;15.95;;
65641;SDS011;52340;-6.720;108.544;2024-03-02T05:55:10;22.60;;;15.60;;
65641;SDS011;52340;-6.720;108.544;2024-03-02T05:56:12;22.58;;;16.92;;
65641;SDS011;52340;-6.720;108.544;2024-03-02T05:57:14;22.20;;;16.20;;